Главная страница
METAR-TAF:

METAR-TAF

Аэропорты :

Cerklje ob Krki, Словения

широта: 45-53-59N, долгота: 15-30-55E, высота над уровнем моря: 157 м

Текущие метеонаблюдения

Эта сводка был подготовлена 34 минут назад, в 20:30 UTC
Ветер 1 Узел переменных направлений
Температура 15°C
Влажность 88%
Давление 1019 hPa
Видимость 10 км и более

METAR: LJCE 202030Z AUTO VRB01KT 9999 NSC 15/13 Q1019

Время: 23:04 (21:04 UTC)

Прогноз

Эта сводка был подготовлена 1 час и 4 минут назад, в 20:00 UTC
Прогноз действительный с 20-го 21 UTC до 21-го 06 UTC
Ветер 2 Узел переменных направлений
Видимость 10 км и более
Нет облачности ниже 1500 м, и нет кучево-дождевой облачности

TAF: LJCE 202000Z 2021/2106 VRB02KT CAVOK

Метеонаблюдения и прогнозы для более 4000 аэропортов (сводки METAR и TAF).

Имеющиеся станции представлены на карте желтыми и красными точками.

Чтобы увидеть название станции, наведите на нее мышь.

Затем щелкните, чтобы увидеть метеонаблюдения и метеопрогнозы.

Управление картой: чтобы увеличить масштаб, щелкните зеленые кнопки с черным крестиком; чтобы уменьшить масштаб, щелкните зеленую кнопку с тире; для просмотра соседних карт щелкайте зеленые стрелки.


METAR-TAF: